Garden City South, New York
Current Conditions -  °F | °C
As of 12:51 PM on Friday 21 Nov 2014 (Local Time) from KJFK Reporting Station
Few Clouds Few Clouds  
Wind Chill: 26°   Ceiling: Unl
Heat Index: 37°   Visibility: 10mi
Dew Point:   Wind: 21mph
Humidity: 30%   Direction: 310°NW
Pressure: 30.3"   Gusts: NA
Location:  40.727°N, 73.6328°W
Report Text: KJFK 211751Z 31018KT 10SM FEW065 03/M13 A3030 RMK AO2 PK WND 32027/1729 SLP260 T00281133 10028 21017 51007
Loading
Personal Weather Stations






























Interactive Weather Map New forecast layout! Learn more

10-Day Weather Forecast

Advertisements
Track Severe Weather on mobile